sensor_id;sensor_type;location;lat;lon;timestamp;P1;durP1;ratioP1;P2;durP2;ratioP2
77586;SDS011;66744;49.716;17.158;2023-07-13T00:00:03;3.80;;;3.35;;
77586;SDS011;66744;49.716;17.158;2023-07-13T00:03:12;5.32;;;3.25;;
77586;SDS011;66744;49.716;17.158;2023-07-13T00:06:23;3.40;;;2.80;;
77586;SDS011;66744;49.716;17.158;2023-07-13T00:09:33;3.63;;;2.83;;
77586;SDS011;66744;49.716;17.158;2023-07-13T00:12:36;4.80;;;3.22;;
77586;SDS011;66744;49.716;17.158;2023-07-13T00:15:38;6.25;;;2.80;;
77586;SDS011;66744;49.716;17.158;2023-07-13T00:18:39;4.28;;;3.05;;
77586;SDS011;66744;49.716;17.158;2023-07-13T00:21:43;5.10;;;3.22;;
77586;SDS011;66744;49.716;17.158;2023-07-13T00:24:45;4.47;;;2.70;;
77586;SDS011;66744;49.716;17.158;2023-07-13T00:27:47;3.55;;;2.67;;
77586;SDS011;66744;49.716;17.158;2023-07-13T00:30:52;4.65;;;3.35;;
77586;SDS011;66744;49.716;17.158;2023-07-13T00:33:55;6.63;;;3.00;;
77586;SDS011;66744;49.716;17.158;2023-07-13T00:37:00;3.22;;;2.70;;
77586;SDS011;66744;49.716;17.158;2023-07-13T00:40:03;5.32;;;3.40;;
77586;SDS011;66744;49.716;17.158;2023-07-13T00:43:22;4.40;;;2.83;;
77586;SDS011;66744;49.716;17.158;2023-07-13T00:46:32;4.25;;;2.92;;
77586;SDS011;66744;49.716;17.158;2023-07-13T00:49:38;3.58;;;2.67;;
77586;SDS011;66744;49.716;17.158;2023-07-13T00:52:57;4.75;;;2.90;;
77586;SDS011;66744;49.716;17.158;2023-07-13T00:56:03;3.65;;;2.80;;
77586;SDS011;66744;49.716;17.158;2023-07-13T00:59:05;3.42;;;2.83;;
77586;SDS011;66744;49.716;17.158;2023-07-13T01:02:21;3.10;;;2.70;;
77586;SDS011;66744;49.716;17.158;2023-07-13T01:05:28;4.13;;;3.25;;
77586;SDS011;66744;49.716;17.158;2023-07-13T01:08:39;4.75;;;2.58;;
77586;SDS011;66744;49.716;17.158;2023-07-13T01:11:43;3.70;;;2.97;;
77586;SDS011;66744;49.716;17.158;2023-07-13T01:14:47;4.80;;;3.08;;
77586;SDS011;66744;49.716;17.158;2023-07-13T01:17:48;3.92;;;2.80;;
77586;SDS011;66744;49.716;17.158;2023-07-13T01:20:50;3.47;;;2.50;;
77586;SDS011;66744;49.716;17.158;2023-07-13T01:23:55;3.40;;;2.85;;
77586;SDS011;66744;49.716;17.158;2023-07-13T01:26:57;3.58;;;2.42;;
77586;SDS011;66744;49.716;17.158;2023-07-13T01:29:58;2.95;;;2.65;;
77586;SDS011;66744;49.716;17.158;2023-07-13T01:33:05;4.15;;;2.50;;
77586;SDS011;66744;49.716;17.158;2023-07-13T01:36:11;4.75;;;2.33;;
77586;SDS011;66744;49.716;17.158;2023-07-13T01:39:12;3.35;;;2.53;;
77586;SDS011;66744;49.716;17.158;2023-07-13T01:42:15;3.63;;;2.72;;
77586;SDS011;66744;49.716;17.158;2023-07-13T01:45:17;3.70;;;3.08;;
77586;SDS011;66744;49.716;17.158;2023-07-13T01:48:18;6.72;;;2.65;;
77586;SDS011;66744;49.716;17.158;2023-07-13T01:51:22;4.40;;;2.33;;
77586;SDS011;66744;49.716;17.158;2023-07-13T01:54:24;4.30;;;2.72;;
77586;SDS011;66744;49.716;17.158;2023-07-13T01:57:28;4.45;;;2.88;;
77586;SDS011;66744;49.716;17.158;2023-07-13T02:00:30;4.75;;;3.40;;
77586;SDS011;66744;49.716;17.158;2023-07-13T02:03:32;5.00;;;2.90;;
77586;SDS011;66744;49.716;17.158;2023-07-13T02:06:33;6.05;;;3.13;;
77586;SDS011;66744;49.716;17.158;2023-07-13T02:09:35;3.97;;;2.78;;
77586;SDS011;66744;49.716;17.158;2023-07-13T02:12:36;3.22;;;2.22;;
77586;SDS011;66744;49.716;17.158;2023-07-13T02:15:40;3.50;;;2.55;;
77586;SDS011;66744;49.716;17.158;2023-07-13T02:18:42;3.17;;;2.88;;
77586;SDS011;66744;49.716;17.158;2023-07-13T02:21:46;5.53;;;3.13;;
77586;SDS011;66744;49.716;17.158;2023-07-13T02:24:48;6.10;;;3.90;;
77586;SDS011;66744;49.716;17.158;2023-07-13T02:27:53;3.92;;;3.40;;
77586;SDS011;66744;49.716;17.158;2023-07-13T02:31:03;4.00;;;2.95;;
77586;SDS011;66744;49.716;17.158;2023-07-13T02:34:07;4.10;;;2.78;;
77586;SDS011;66744;49.716;17.158;2023-07-13T02:37:11;6.45;;;3.58;;
77586;SDS011;66744;49.716;17.158;2023-07-13T02:40:13;5.72;;;2.85;;
77586;SDS011;66744;49.716;17.158;2023-07-13T02:43:14;3.67;;;2.80;;
77586;SDS011;66744;49.716;17.158;2023-07-13T02:46:16;6.53;;;3.13;;
77586;SDS011;66744;49.716;17.158;2023-07-13T02:49:17;4.82;;;2.63;;
77586;SDS011;66744;49.716;17.158;2023-07-13T02:52:22;5.05;;;3.05;;
77586;SDS011;66744;49.716;17.158;2023-07-13T02:55:26;3.45;;;2.55;;
77586;SDS011;66744;49.716;17.158;2023-07-13T03:02:00;5.80;;;3.00;;
77586;SDS011;66744;49.716;17.158;2023-07-13T03:05:04;4.63;;;3.33;;
77586;SDS011;66744;49.716;17.158;2023-07-13T03:08:07;5.75;;;2.83;;
77586;SDS011;66744;49.716;17.158;2023-07-13T03:11:20;4.80;;;3.00;;
77586;SDS011;66744;49.716;17.158;2023-07-13T03:14:33;3.38;;;3.08;;
77586;SDS011;66744;49.716;17.158;2023-07-13T03:17:39;5.80;;;2.90;;
77586;SDS011;66744;49.716;17.158;2023-07-13T03:20:48;7.85;;;3.28;;
77586;SDS011;66744;49.716;17.158;2023-07-13T03:23:54;5.63;;;3.22;;
77586;SDS011;66744;49.716;17.158;2023-07-13T03:27:03;6.30;;;3.40;;
77586;SDS011;66744;49.716;17.158;2023-07-13T03:30:13;6.15;;;3.05;;
77586;SDS011;66744;49.716;17.158;2023-07-13T03:33:20;6.32;;;3.17;;
77586;SDS011;66744;49.716;17.158;2023-07-13T03:36:24;6.80;;;2.78;;
77586;SDS011;66744;49.716;17.158;2023-07-13T03:39:35;8.65;;;3.42;;
77586;SDS011;66744;49.716;17.158;2023-07-13T03:42:37;8.02;;;3.65;;
77586;SDS011;66744;49.716;17.158;2023-07-13T03:45:39;6.63;;;3.22;;
77586;SDS011;66744;49.716;17.158;2023-07-13T03:48:47;8.73;;;3.58;;
77586;SDS011;66744;49.716;17.158;2023-07-13T03:51:52;4.65;;;2.97;;
77586;SDS011;66744;49.716;17.158;2023-07-13T03:54:57;8.05;;;3.53;;
77586;SDS011;66744;49.716;17.158;2023-07-13T03:58:00;9.82;;;3.90;;
77586;SDS011;66744;49.716;17.158;2023-07-13T04:01:33;8.13;;;3.63;;
77586;SDS011;66744;49.716;17.158;2023-07-13T04:04:40;8.00;;;3.67;;
77586;SDS011;66744;49.716;17.158;2023-07-13T04:07:50;7.43;;;3.78;;
77586;SDS011;66744;49.716;17.158;2023-07-13T04:10:52;6.32;;;4.00;;
77586;SDS011;66744;49.716;17.158;2023-07-13T04:13:54;6.38;;;3.22;;
77586;SDS011;66744;49.716;17.158;2023-07-13T04:16:55;3.90;;;3.38;;
77586;SDS011;66744;49.716;17.158;2023-07-13T04:19:57;5.07;;;2.95;;
77586;SDS011;66744;49.716;17.158;2023-07-13T04:22:58;8.23;;;3.65;;
77586;SDS011;66744;49.716;17.158;2023-07-13T04:25:59;12.07;;;3.42;;
77586;SDS011;66744;49.716;17.158;2023-07-13T04:29:01;6.60;;;3.55;;
77586;SDS011;66744;49.716;17.158;2023-07-13T04:32:04;9.38;;;3.40;;
77586;SDS011;66744;49.716;17.158;2023-07-13T04:35:09;4.28;;;2.80;;
77586;SDS011;66744;49.716;17.158;2023-07-13T04:38:10;7.47;;;3.92;;
77586;SDS011;66744;49.716;17.158;2023-07-13T04:41:12;5.10;;;3.28;;
77586;SDS011;66744;49.716;17.158;2023-07-13T04:44:28;5.70;;;3.70;;
77586;SDS011;66744;49.716;17.158;2023-07-13T04:47:30;5.18;;;3.55;;
77586;SDS011;66744;49.716;17.158;2023-07-13T04:50:32;8.00;;;3.45;;
77586;SDS011;66744;49.716;17.158;2023-07-13T04:53:36;5.05;;;3.13;;
77586;SDS011;66744;49.716;17.158;2023-07-13T04:56:37;5.65;;;3.33;;
77586;SDS011;66744;49.716;17.158;2023-07-13T04:59:38;6.93;;;3.20;;
77586;SDS011;66744;49.716;17.158;2023-07-13T05:02:40;5.22;;;3.67;;
77586;SDS011;66744;49.716;17.158;2023-07-13T05:05:54;8.23;;;3.65;;
77586;SDS011;66744;49.716;17.158;2023-07-13T05:08:59;5.45;;;3.90;;
77586;SDS011;66744;49.716;17.158;2023-07-13T05:12:01;6.68;;;3.20;;
77586;SDS011;66744;49.716;17.158;2023-07-13T05:15:02;6.47;;;4.00;;
77586;SDS011;66744;49.716;17.158;2023-07-13T05:18:07;5.72;;;4.28;;
77586;SDS011;66744;49.716;17.158;2023-07-13T05:21:09;7.32;;;3.72;;
77586;SDS011;66744;49.716;17.158;2023-07-13T05:24:12;7.88;;;3.97;;
77586;SDS011;66744;49.716;17.158;2023-07-13T05:27:13;9.75;;;4.47;;
77586;SDS011;66744;49.716;17.158;2023-07-13T05:30:15;5.00;;;4.50;;
77586;SDS011;66744;49.716;17.158;2023-07-13T05:33:19;6.45;;;4.30;;
77586;SDS011;66744;49.716;17.158;2023-07-13T05:36:21;5.32;;;4.20;;
77586;SDS011;66744;49.716;17.158;2023-07-13T05:39:22;4.30;;;3.90;;
77586;SDS011;66744;49.716;17.158;2023-07-13T05:42:24;5.75;;;4.43;;
77586;SDS011;66744;49.716;17.158;2023-07-13T05:45:28;7.50;;;4.18;;
77586;SDS011;66744;49.716;17.158;2023-07-13T05:48:30;7.55;;;4.65;;
77586;SDS011;66744;49.716;17.158;2023-07-13T05:51:31;5.60;;;3.80;;
77586;SDS011;66744;49.716;17.158;2023-07-13T05:54:35;5.88;;;4.60;;
77586;SDS011;66744;49.716;17.158;2023-07-13T05:57:36;6.80;;;5.50;;
77586;SDS011;66744;49.716;17.158;2023-07-13T06:00:38;7.25;;;4.07;;
77586;SDS011;66744;49.716;17.158;2023-07-13T06:03:39;6.15;;;4.78;;
77586;SDS011;66744;49.716;17.158;2023-07-13T06:06:41;4.88;;;3.58;;
77586;SDS011;66744;49.716;17.158;2023-07-13T06:09:45;5.05;;;3.90;;
77586;SDS011;66744;49.716;17.158;2023-07-13T06:12:46;5.90;;;3.88;;
77586;SDS011;66744;49.716;17.158;2023-07-13T06:15:48;5.97;;;4.43;;
77586;SDS011;66744;49.716;17.158;2023-07-13T06:18:50;8.00;;;4.38;;
77586;SDS011;66744;49.716;17.158;2023-07-13T06:21:52;6.25;;;3.60;;
77586;SDS011;66744;49.716;17.158;2023-07-13T06:24:56;5.97;;;3.08;;
77586;SDS011;66744;49.716;17.158;2023-07-13T06:27:59;6.65;;;4.45;;
77586;SDS011;66744;49.716;17.158;2023-07-13T06:31:01;7.13;;;3.67;;
77586;SDS011;66744;49.716;17.158;2023-07-13T06:34:05;5.75;;;4.45;;
77586;SDS011;66744;49.716;17.158;2023-07-13T06:37:07;6.55;;;4.70;;
77586;SDS011;66744;49.716;17.158;2023-07-13T06:40:08;6.63;;;4.35;;
77586;SDS011;66744;49.716;17.158;2023-07-13T06:43:11;6.80;;;4.85;;
77586;SDS011;66744;49.716;17.158;2023-07-13T06:46:31;6.85;;;3.55;;
77586;SDS011;66744;49.716;17.158;2023-07-13T06:49:49;8.30;;;4.60;;
77586;SDS011;66744;49.716;17.158;2023-07-13T06:53:05;5.95;;;4.93;;
77586;SDS011;66744;49.716;17.158;2023-07-13T06:56:14;6.07;;;4.07;;
77586;SDS011;66744;49.716;17.158;2023-07-13T06:59:18;7.35;;;3.75;;
77586;SDS011;66744;49.716;17.158;2023-07-13T07:02:20;4.75;;;2.80;;
77586;SDS011;66744;49.716;17.158;2023-07-13T07:05:30;3.97;;;3.13;;
77586;SDS011;66744;49.716;17.158;2023-07-13T07:08:52;4.82;;;3.28;;
77586;SDS011;66744;49.716;17.158;2023-07-13T07:12:01;4.75;;;3.58;;
77586;SDS011;66744;49.716;17.158;2023-07-13T07:15:06;3.53;;;3.20;;
77586;SDS011;66744;49.716;17.158;2023-07-13T07:18:36;5.35;;;3.45;;
77586;SDS011;66744;49.716;17.158;2023-07-13T07:21:47;3.67;;;3.30;;
77586;SDS011;66744;49.716;17.158;2023-07-13T07:24:51;7.25;;;3.95;;
77586;SDS011;66744;49.716;17.158;2023-07-13T07:28:03;4.35;;;3.67;;
77586;SDS011;66744;49.716;17.158;2023-07-13T07:31:04;4.60;;;3.58;;
77586;SDS011;66744;49.716;17.158;2023-07-13T07:34:06;4.15;;;3.40;;
77586;SDS011;66744;49.716;17.158;2023-07-13T07:37:11;5.30;;;2.83;;
77586;SDS011;66744;49.716;17.158;2023-07-13T07:40:14;3.45;;;2.97;;
77586;SDS011;66744;49.716;17.158;2023-07-13T07:43:15;3.53;;;2.83;;
77586;SDS011;66744;49.716;17.158;2023-07-13T07:46:17;4.70;;;3.42;;
77586;SDS011;66744;49.716;17.158;2023-07-13T07:49:18;6.15;;;3.72;;
77586;SDS011;66744;49.716;17.158;2023-07-13T07:52:20;5.03;;;3.25;;
77586;SDS011;66744;49.716;17.158;2023-07-13T07:55:24;4.18;;;3.05;;
77586;SDS011;66744;49.716;17.158;2023-07-13T07:58:31;5.07;;;3.78;;
77586;SDS011;66744;49.716;17.158;2023-07-13T08:01:36;7.57;;;3.80;;
77586;SDS011;66744;49.716;17.158;2023-07-13T08:04:40;3.80;;;2.85;;
77586;SDS011;66744;49.716;17.158;2023-07-13T08:07:42;4.07;;;2.95;;
77586;SDS011;66744;49.716;17.158;2023-07-13T08:10:45;4.82;;;3.55;;
77586;SDS011;66744;49.716;17.158;2023-07-13T08:13:47;5.13;;;3.38;;
77586;SDS011;66744;49.716;17.158;2023-07-13T08:16:48;5.28;;;3.22;;
77586;SDS011;66744;49.716;17.158;2023-07-13T08:19:53;5.55;;;3.90;;
77586;SDS011;66744;49.716;17.158;2023-07-13T08:22:56;6.15;;;3.65;;
77586;SDS011;66744;49.716;17.158;2023-07-13T08:25:59;5.05;;;3.40;;
77586;SDS011;66744;49.716;17.158;2023-07-13T08:29:03;4.95;;;3.30;;
77586;SDS011;66744;49.716;17.158;2023-07-13T08:32:07;6.90;;;4.22;;
77586;SDS011;66744;49.716;17.158;2023-07-13T08:35:11;3.38;;;3.08;;
77586;SDS011;66744;49.716;17.158;2023-07-13T08:38:15;4.80;;;3.65;;
77586;SDS011;66744;49.716;17.158;2023-07-13T08:41:22;4.28;;;3.53;;
77586;SDS011;66744;49.716;17.158;2023-07-13T08:44:35;5.05;;;4.20;;
77586;SDS011;66744;49.716;17.158;2023-07-13T08:47:52;4.43;;;3.75;;
77586;SDS011;66744;49.716;17.158;2023-07-13T08:51:22;4.82;;;3.90;;
77586;SDS011;66744;49.716;17.158;2023-07-13T08:54:43;4.60;;;3.78;;
77586;SDS011;66744;49.716;17.158;2023-07-13T08:58:12;5.75;;;4.07;;
77586;SDS011;66744;49.716;17.158;2023-07-13T09:01:17;5.88;;;4.13;;
77586;SDS011;66744;49.716;17.158;2023-07-13T09:04:45;5.72;;;3.75;;
77586;SDS011;66744;49.716;17.158;2023-07-13T09:14:55;6.35;;;4.10;;
77586;SDS011;66744;49.716;17.158;2023-07-13T09:18:28;12.70;;;5.95;;
77586;SDS011;66744;49.716;17.158;2023-07-13T09:21:39;9.95;;;6.25;;
77586;SDS011;66744;49.716;17.158;2023-07-13T09:24:50;11.90;;;6.65;;
77586;SDS011;66744;49.716;17.158;2023-07-13T09:28:08;10.50;;;7.20;;
77586;SDS011;66744;49.716;17.158;2023-07-13T09:31:20;8.35;;;6.30;;
77586;SDS011;66744;49.716;17.158;2023-07-13T09:34:27;8.10;;;5.90;;
77586;SDS011;66744;49.716;17.158;2023-07-13T09:37:33;7.57;;;6.05;;
77586;SDS011;66744;49.716;17.158;2023-07-13T09:40:40;7.28;;;5.95;;
77586;SDS011;66744;49.716;17.158;2023-07-13T09:47:18;7.40;;;6.13;;
77586;SDS011;66744;49.716;17.158;2023-07-13T09:50:24;8.95;;;6.93;;
77586;SDS011;66744;49.716;17.158;2023-07-13T09:53:26;10.48;;;6.70;;
77586;SDS011;66744;49.716;17.158;2023-07-13T09:56:32;7.65;;;5.78;;
77586;SDS011;66744;49.716;17.158;2023-07-13T09:59:40;7.35;;;6.53;;
77586;SDS011;66744;49.716;17.158;2023-07-13T10:02:49;10.63;;;7.15;;
77586;SDS011;66744;49.716;17.158;2023-07-13T10:06:12;7.95;;;7.15;;
77586;SDS011;66744;49.716;17.158;2023-07-13T10:09:16;8.50;;;7.65;;
77586;SDS011;66744;49.716;17.158;2023-07-13T10:15:28;9.07;;;7.43;;
77586;SDS011;66744;49.716;17.158;2023-07-13T10:18:39;9.45;;;8.45;;
77586;SDS011;66744;49.716;17.158;2023-07-13T10:21:57;9.30;;;8.13;;
77586;SDS011;66744;49.716;17.158;2023-07-13T10:25:23;10.43;;;7.40;;
77586;SDS011;66744;49.716;17.158;2023-07-13T10:28:31;8.57;;;7.18;;
77586;SDS011;66744;49.716;17.158;2023-07-13T10:31:41;10.43;;;8.85;;
77586;SDS011;66744;49.716;17.158;2023-07-13T10:34:46;10.20;;;7.32;;
77586;SDS011;66744;49.716;17.158;2023-07-13T10:38:06;9.68;;;6.80;;
77586;SDS011;66744;49.716;17.158;2023-07-13T10:41:22;10.05;;;8.57;;
77586;SDS011;66744;49.716;17.158;2023-07-13T10:44:30;9.30;;;7.95;;
77586;SDS011;66744;49.716;17.158;2023-07-13T10:50:38;10.57;;;6.93;;
77586;SDS011;66744;49.716;17.158;2023-07-13T10:53:48;9.52;;;7.15;;
77586;SDS011;66744;49.716;17.158;2023-07-13T10:57:27;8.13;;;6.65;;
77586;SDS011;66744;49.716;17.158;2023-07-13T11:00:30;7.07;;;5.10;;
77586;SDS011;66744;49.716;17.158;2023-07-13T11:03:47;5.45;;;4.72;;
77586;SDS011;66744;49.716;17.158;2023-07-13T11:06:56;4.63;;;3.88;;
77586;SDS011;66744;49.716;17.158;2023-07-13T11:10:00;6.72;;;3.50;;
77586;SDS011;66744;49.716;17.158;2023-07-13T11:13:29;5.18;;;4.20;;
77586;SDS011;66744;49.716;17.158;2023-07-13T11:16:58;5.07;;;4.47;;
77586;SDS011;66744;49.716;17.158;2023-07-13T11:20:30;4.93;;;4.43;;
77586;SDS011;66744;49.716;17.158;2023-07-13T11:23:42;4.13;;;3.72;;
77586;SDS011;66744;49.716;17.158;2023-07-13T11:26:59;5.50;;;4.13;;
77586;SDS011;66744;49.716;17.158;2023-07-13T11:30:41;6.07;;;5.47;;
77586;SDS011;66744;49.716;17.158;2023-07-13T11:33:51;5.28;;;4.78;;
77586;SDS011;66744;49.716;17.158;2023-07-13T11:36:58;6.75;;;4.88;;
77586;SDS011;66744;49.716;17.158;2023-07-13T11:40:03;7.72;;;5.28;;
77586;SDS011;66744;49.716;17.158;2023-07-13T11:43:08;7.47;;;5.00;;
77586;SDS011;66744;49.716;17.158;2023-07-13T11:46:20;7.65;;;5.60;;
77586;SDS011;66744;49.716;17.158;2023-07-13T11:49:30;6.40;;;4.25;;
77586;SDS011;66744;49.716;17.158;2023-07-13T11:52:33;5.28;;;4.53;;
77586;SDS011;66744;49.716;17.158;2023-07-13T11:55:43;7.20;;;5.55;;
77586;SDS011;66744;49.716;17.158;2023-07-13T11:58:49;7.22;;;4.90;;
77586;SDS011;66744;49.716;17.158;2023-07-13T12:01:52;4.93;;;4.40;;
77586;SDS011;66744;49.716;17.158;2023-07-13T12:04:55;7.95;;;4.72;;
77586;SDS011;66744;49.716;17.158;2023-07-13T12:08:03;4.00;;;3.58;;
77586;SDS011;66744;49.716;17.158;2023-07-13T12:11:15;5.65;;;4.88;;
77586;SDS011;66744;49.716;17.158;2023-07-13T12:14:26;7.05;;;4.90;;
77586;SDS011;66744;49.716;17.158;2023-07-13T12:17:29;4.50;;;3.92;;
77586;SDS011;66744;49.716;17.158;2023-07-13T12:20:33;4.55;;;4.05;;
77586;SDS011;66744;49.716;17.158;2023-07-13T12:23:38;5.47;;;4.38;;
77586;SDS011;66744;49.716;17.158;2023-07-13T12:26:40;4.25;;;3.65;;
77586;SDS011;66744;49.716;17.158;2023-07-13T12:29:49;5.72;;;3.97;;
77586;SDS011;66744;49.716;17.158;2023-07-13T12:33:02;4.28;;;3.75;;
77586;SDS011;66744;49.716;17.158;2023-07-13T12:36:10;4.40;;;3.60;;
77586;SDS011;66744;49.716;17.158;2023-07-13T12:39:15;4.95;;;2.92;;
77586;SDS011;66744;49.716;17.158;2023-07-13T12:42:21;8.18;;;3.22;;
77586;SDS011;66744;49.716;17.158;2023-07-13T12:45:27;4.28;;;3.75;;
77586;SDS011;66744;49.716;17.158;2023-07-13T12:48:52;5.07;;;3.40;;
77586;SDS011;66744;49.716;17.158;2023-07-13T12:51:59;4.25;;;3.30;;
77586;SDS011;66744;49.716;17.158;2023-07-13T12:55:10;3.42;;;3.00;;
77586;SDS011;66744;49.716;17.158;2023-07-13T12:58:28;4.25;;;3.10;;
77586;SDS011;66744;49.716;17.158;2023-07-13T13:01:36;3.63;;;2.97;;
77586;SDS011;66744;49.716;17.158;2023-07-13T13:04:39;7.13;;;3.35;;
77586;SDS011;66744;49.716;17.158;2023-07-13T13:07:47;3.63;;;2.72;;
77586;SDS011;66744;49.716;17.158;2023-07-13T13:10:48;5.03;;;3.17;;
77586;SDS011;66744;49.716;17.158;2023-07-13T13:13:50;3.88;;;3.20;;
77586;SDS011;66744;49.716;17.158;2023-07-13T13:16:54;2.53;;;2.33;;
77586;SDS011;66744;49.716;17.158;2023-07-13T13:19:57;3.33;;;2.50;;
77586;SDS011;66744;49.716;17.158;2023-07-13T13:22:58;2.50;;;2.30;;
77586;SDS011;66744;49.716;17.158;2023-07-13T13:26:08;2.85;;;2.55;;
77586;SDS011;66744;49.716;17.158;2023-07-13T13:29:16;3.50;;;2.50;;
77586;SDS011;66744;49.716;17.158;2023-07-13T13:32:34;4.00;;;2.78;;
77586;SDS011;66744;49.716;17.158;2023-07-13T13:35:35;3.83;;;2.72;;
77586;SDS011;66744;49.716;17.158;2023-07-13T13:38:37;3.30;;;2.25;;
77586;SDS011;66744;49.716;17.158;2023-07-13T13:41:38;2.42;;;2.22;;
77586;SDS011;66744;49.716;17.158;2023-07-13T13:44:42;2.58;;;2.13;;
77586;SDS011;66744;49.716;17.158;2023-07-13T13:47:46;3.00;;;2.17;;
77586;SDS011;66744;49.716;17.158;2023-07-13T13:50:54;4.60;;;2.10;;
77586;SDS011;66744;49.716;17.158;2023-07-13T13:53:55;4.10;;;2.22;;
77586;SDS011;66744;49.716;17.158;2023-07-13T13:57:00;3.60;;;2.90;;
77586;SDS011;66744;49.716;17.158;2023-07-13T14:00:04;2.38;;;1.95;;
77586;SDS011;66744;49.716;17.158;2023-07-13T14:03:08;2.97;;;2.20;;
77586;SDS011;66744;49.716;17.158;2023-07-13T14:06:21;3.88;;;2.55;;
77586;SDS011;66744;49.716;17.158;2023-07-13T14:09:26;4.38;;;2.05;;
77586;SDS011;66744;49.716;17.158;2023-07-13T14:12:28;3.08;;;2.30;;
77586;SDS011;66744;49.716;17.158;2023-07-13T14:15:31;2.85;;;1.92;;
77586;SDS011;66744;49.716;17.158;2023-07-13T14:18:35;3.25;;;1.67;;
77586;SDS011;66744;49.716;17.158;2023-07-13T14:21:36;2.05;;;1.75;;
77586;SDS011;66744;49.716;17.158;2023-07-13T14:24:56;2.80;;;1.65;;
77586;SDS011;66744;49.716;17.158;2023-07-13T14:27:59;2.13;;;1.92;;
77586;SDS011;66744;49.716;17.158;2023-07-13T14:31:07;2.38;;;1.52;;
77586;SDS011;66744;49.716;17.158;2023-07-13T14:34:11;2.20;;;1.70;;
77586;SDS011;66744;49.716;17.158;2023-07-13T14:37:14;1.90;;;1.50;;
77586;SDS011;66744;49.716;17.158;2023-07-13T14:40:17;2.33;;;1.80;;
77586;SDS011;66744;49.716;17.158;2023-07-13T14:43:31;2.50;;;1.52;;
77586;SDS011;66744;49.716;17.158;2023-07-13T14:46:33;2.05;;;1.30;;
77586;SDS011;66744;49.716;17.158;2023-07-13T14:49:36;3.22;;;1.25;;
77586;SDS011;66744;49.716;17.158;2023-07-13T14:53:01;3.60;;;1.90;;
77586;SDS011;66744;49.716;17.158;2023-07-13T14:56:25;5.38;;;1.80;;
77586;SDS011;66744;49.716;17.158;2023-07-13T14:59:30;3.55;;;2.28;;
77586;SDS011;66744;49.716;17.158;2023-07-13T15:02:47;4.68;;;1.73;;
77586;SDS011;66744;49.716;17.158;2023-07-13T15:06:03;3.88;;;1.45;;
77586;SDS011;66744;49.716;17.158;2023-07-13T15:09:07;2.20;;;1.50;;
77586;SDS011;66744;49.716;17.158;2023-07-13T15:12:26;1.98;;;1.48;;
77586;SDS011;66744;49.716;17.158;2023-07-13T15:15:31;2.58;;;1.60;;
77586;SDS011;66744;49.716;17.158;2023-07-13T15:18:42;1.70;;;1.30;;
77586;SDS011;66744;49.716;17.158;2023-07-13T15:21:44;2.92;;;1.40;;
77586;SDS011;66744;49.716;17.158;2023-07-13T15:24:45;1.77;;;1.42;;
77586;SDS011;66744;49.716;17.158;2023-07-13T15:27:53;1.85;;;1.20;;
77586;SDS011;66744;49.716;17.158;2023-07-13T15:30:56;2.03;;;1.33;;
77586;SDS011;66744;49.716;17.158;2023-07-13T15:33:58;1.92;;;1.30;;
77586;SDS011;66744;49.716;17.158;2023-07-13T15:37:13;2.65;;;1.40;;
77586;SDS011;66744;49.716;17.158;2023-07-13T15:40:16;1.50;;;1.13;;
77586;SDS011;66744;49.716;17.158;2023-07-13T15:43:18;1.02;;;0.90;;
77586;SDS011;66744;49.716;17.158;2023-07-13T15:46:21;3.20;;;1.27;;
77586;SDS011;66744;49.716;17.158;2023-07-13T15:49:27;1.27;;;1.08;;
77586;SDS011;66744;49.716;17.158;2023-07-13T15:52:34;2.70;;;1.85;;
77586;SDS011;66744;49.716;17.158;2023-07-13T15:55:38;1.67;;;1.40;;
77586;SDS011;66744;49.716;17.158;2023-07-13T15:58:43;3.08;;;1.50;;
77586;SDS011;66744;49.716;17.158;2023-07-13T16:01:44;1.88;;;1.35;;
77586;SDS011;66744;49.716;17.158;2023-07-13T16:04:47;2.42;;;1.33;;
77586;SDS011;66744;49.716;17.158;2023-07-13T16:07:52;1.45;;;1.27;;
77586;SDS011;66744;49.716;17.158;2023-07-13T16:10:56;1.77;;;1.45;;
77586;SDS011;66744;49.716;17.158;2023-07-13T16:14:02;2.20;;;1.35;;
77586;SDS011;66744;49.716;17.158;2023-07-13T16:17:12;1.98;;;1.50;;
77586;SDS011;66744;49.716;17.158;2023-07-13T16:20:17;1.40;;;1.10;;
77586;SDS011;66744;49.716;17.158;2023-07-13T16:23:21;2.17;;;1.42;;
77586;SDS011;66744;49.716;17.158;2023-07-13T16:29:25;1.23;;;0.85;;
77586;SDS011;66744;49.716;17.158;2023-07-13T16:32:29;3.00;;;1.38;;
77586;SDS011;66744;49.716;17.158;2023-07-13T16:35:31;1.58;;;1.30;;
77586;SDS011;66744;49.716;17.158;2023-07-13T16:38:35;3.40;;;1.20;;
77586;SDS011;66744;49.716;17.158;2023-07-13T16:41:42;2.67;;;2.40;;
77586;SDS011;66744;49.716;17.158;2023-07-13T16:44:45;3.03;;;1.40;;
77586;SDS011;66744;49.716;17.158;2023-07-13T16:47:47;1.65;;;1.23;;
77586;SDS011;66744;49.716;17.158;2023-07-13T16:50:53;1.42;;;1.20;;
77586;SDS011;66744;49.716;17.158;2023-07-13T16:53:56;1.83;;;1.13;;
77586;SDS011;66744;49.716;17.158;2023-07-13T16:56:58;1.75;;;0.85;;
77586;SDS011;66744;49.716;17.158;2023-07-13T17:00:08;1.45;;;1.20;;
77586;SDS011;66744;49.716;17.158;2023-07-13T17:03:18;2.13;;;1.15;;
77586;SDS011;66744;49.716;17.158;2023-07-13T17:06:24;2.15;;;1.20;;
77586;SDS011;66744;49.716;17.158;2023-07-13T17:09:27;1.45;;;1.10;;
77586;SDS011;66744;49.716;17.158;2023-07-13T17:12:28;1.20;;;1.05;;
77586;SDS011;66744;49.716;17.158;2023-07-13T17:15:30;2.47;;;0.90;;
77586;SDS011;66744;49.716;17.158;2023-07-13T17:18:34;1.42;;;1.00;;
77586;SDS011;66744;49.716;17.158;2023-07-13T17:21:38;3.15;;;1.38;;
77586;SDS011;66744;49.716;17.158;2023-07-13T17:24:46;1.50;;;1.15;;
77586;SDS011;66744;49.716;17.158;2023-07-13T17:27:49;1.75;;;1.08;;
77586;SDS011;66744;49.716;17.158;2023-07-13T17:30:52;1.73;;;1.10;;
77586;SDS011;66744;49.716;17.158;2023-07-13T17:33:55;1.50;;;1.10;;
77586;SDS011;66744;49.716;17.158;2023-07-13T17:37:12;1.10;;;0.90;;
77586;SDS011;66744;49.716;17.158;2023-07-13T17:40:16;1.67;;;1.00;;
77586;SDS011;66744;49.716;17.158;2023-07-13T17:43:26;2.25;;;0.85;;
77586;SDS011;66744;49.716;17.158;2023-07-13T17:46:29;1.45;;;1.30;;
77586;SDS011;66744;49.716;17.158;2023-07-13T17:49:38;1.65;;;1.00;;
77586;SDS011;66744;49.716;17.158;2023-07-13T17:52:49;1.63;;;1.15;;
77586;SDS011;66744;49.716;17.158;2023-07-13T17:55:53;2.08;;;1.00;;
77586;SDS011;66744;49.716;17.158;2023-07-13T17:58:58;3.00;;;1.27;;
77586;SDS011;66744;49.716;17.158;2023-07-13T18:02:00;2.50;;;0.73;;
77586;SDS011;66744;49.716;17.158;2023-07-13T18:05:02;3.97;;;1.00;;
77586;SDS011;66744;49.716;17.158;2023-07-13T18:08:26;1.52;;;0.80;;
77586;SDS011;66744;49.716;17.158;2023-07-13T18:11:33;1.00;;;0.70;;
77586;SDS011;66744;49.716;17.158;2023-07-13T18:14:36;1.13;;;0.90;;
77586;SDS011;66744;49.716;17.158;2023-07-13T18:17:46;1.40;;;0.95;;
77586;SDS011;66744;49.716;17.158;2023-07-13T18:20:51;2.10;;;0.90;;
77586;SDS011;66744;49.716;17.158;2023-07-13T18:23:57;1.55;;;0.95;;
77586;SDS011;66744;49.716;17.158;2023-07-13T18:27:01;0.80;;;0.80;;
77586;SDS011;66744;49.716;17.158;2023-07-13T18:30:05;1.30;;;0.93;;
77586;SDS011;66744;49.716;17.158;2023-07-13T18:33:21;2.05;;;1.00;;
77586;SDS011;66744;49.716;17.158;2023-07-13T18:36:33;2.40;;;1.00;;
77586;SDS011;66744;49.716;17.158;2023-07-13T18:39:35;2.97;;;0.90;;
77586;SDS011;66744;49.716;17.158;2023-07-13T18:43:29;1.33;;;1.10;;
77586;SDS011;66744;49.716;17.158;2023-07-13T18:46:43;1.10;;;0.90;;
77586;SDS011;66744;49.716;17.158;2023-07-13T18:50:01;1.25;;;1.02;;